sensor_id;sensor_type;location;lat;lon;timestamp;temperature;humidity
34873;DHT22;21084;51.098;14.506;2023-02-16T00:01:07;-0.40;99.90
34873;DHT22;21084;51.098;14.506;2023-02-16T00:03:40;-0.40;99.90
34873;DHT22;21084;51.098;14.506;2023-02-16T00:06:08;-0.30;99.90
34873;DHT22;21084;51.098;14.506;2023-02-16T00:08:42;-0.10;99.90
34873;DHT22;21084;51.098;14.506;2023-02-16T00:11:15;0.00;99.90
34873;DHT22;21084;51.098;14.506;2023-02-16T00:14:01;-0.10;99.90
34873;DHT22;21084;51.098;14.506;2023-02-16T00:16:29;-0.30;99.90
34873;DHT22;21084;51.098;14.506;2023-02-16T00:18:58;-0.60;99.90
34873;DHT22;21084;51.098;14.506;2023-02-16T00:21:26;-0.50;99.90
34873;DHT22;21084;51.098;14.506;2023-02-16T00:23:55;-0.50;99.90
34873;DHT22;21084;51.098;14.506;2023-02-16T00:26:24;-0.40;99.90
34873;DHT22;21084;51.098;14.506;2023-02-16T00:28:54;-0.50;99.90
34873;DHT22;21084;51.098;14.506;2023-02-16T00:31:24;-0.40;99.90
34873;DHT22;21084;51.098;14.506;2023-02-16T00:33:55;-0.30;99.90
34873;DHT22;21084;51.098;14.506;2023-02-16T00:36:23;-0.40;99.90
34873;DHT22;21084;51.098;14.506;2023-02-16T00:38:51;-0.40;99.90
34873;DHT22;21084;51.098;14.506;2023-02-16T00:41:21;-0.50;99.90
34873;DHT22;21084;51.098;14.506;2023-02-16T00:44:11;-0.60;99.90
34873;DHT22;21084;51.098;14.506;2023-02-16T00:46:41;-0.70;99.90
34873;DHT22;21084;51.098;14.506;2023-02-16T00:49:11;-0.70;99.90
34873;DHT22;21084;51.098;14.506;2023-02-16T00:51:40;-0.70;99.90
34873;DHT22;21084;51.098;14.506;2023-02-16T00:54:08;-0.80;99.90
34873;DHT22;21084;51.098;14.506;2023-02-16T00:56:38;-0.90;99.90
34873;DHT22;21084;51.098;14.506;2023-02-16T00:59:06;-0.80;99.90
34873;DHT22;21084;51.098;14.506;2023-02-16T01:01:35;-0.70;99.90
34873;DHT22;21084;51.098;14.506;2023-02-16T01:04:05;-0.90;99.90
34873;DHT22;21084;51.098;14.506;2023-02-16T01:06:33;-0.90;99.90
34873;DHT22;21084;51.098;14.506;2023-02-16T01:09:19;-0.90;99.90
34873;DHT22;21084;51.098;14.506;2023-02-16T01:12:08;-0.90;99.90
34873;DHT22;21084;51.098;14.506;2023-02-16T01:14:37;-1.10;99.90
34873;DHT22;21084;51.098;14.506;2023-02-16T01:17:05;-1.00;99.90
34873;DHT22;21084;51.098;14.506;2023-02-16T01:19:33;-1.10;99.90
34873;DHT22;21084;51.098;14.506;2023-02-16T01:22:01;-1.00;99.90
34873;DHT22;21084;51.098;14.506;2023-02-16T01:24:29;-0.90;99.90
34873;DHT22;21084;51.098;14.506;2023-02-16T01:26:57;-0.90;99.90
34873;DHT22;21084;51.098;14.506;2023-02-16T01:29:27;-0.40;99.90
34873;DHT22;21084;51.098;14.506;2023-02-16T01:31:55;0.10;99.90
34873;DHT22;21084;51.098;14.506;2023-02-16T01:34:24;0.10;99.90
34873;DHT22;21084;51.098;14.506;2023-02-16T01:36:52;0.10;99.90
34873;DHT22;21084;51.098;14.506;2023-02-16T01:39:20;-0.10;99.90
34873;DHT22;21084;51.098;14.506;2023-02-16T01:44:40;-0.20;99.90
34873;DHT22;21084;51.098;14.506;2023-02-16T01:47:11;-0.40;99.90
34873;DHT22;21084;51.098;14.506;2023-02-16T01:49:42;-0.40;99.90
34873;DHT22;21084;51.098;14.506;2023-02-16T01:52:11;-0.50;99.90
34873;DHT22;21084;51.098;14.506;2023-02-16T01:54:46;-0.60;99.90
34873;DHT22;21084;51.098;14.506;2023-02-16T01:57:20;-0.50;99.90
34873;DHT22;21084;51.098;14.506;2023-02-16T02:00:03;-0.70;99.90
34873;DHT22;21084;51.098;14.506;2023-02-16T02:02:32;-0.80;99.90
34873;DHT22;21084;51.098;14.506;2023-02-16T02:05:04;-1.00;99.90
34873;DHT22;21084;51.098;14.506;2023-02-16T02:07:51;-1.10;99.90
34873;DHT22;21084;51.098;14.506;2023-02-16T02:10:23;-1.20;99.90
34873;DHT22;21084;51.098;14.506;2023-02-16T02:12:54;-1.20;99.90
34873;DHT22;21084;51.098;14.506;2023-02-16T02:15:25;-1.30;99.90
34873;DHT22;21084;51.098;14.506;2023-02-16T02:17:55;-1.50;99.90
34873;DHT22;21084;51.098;14.506;2023-02-16T02:20:24;-1.50;99.90
34873;DHT22;21084;51.098;14.506;2023-02-16T02:23:17;-1.30;99.90
34873;DHT22;21084;51.098;14.506;2023-02-16T02:26:05;-1.20;99.90
34873;DHT22;21084;51.098;14.506;2023-02-16T02:28:41;-1.00;99.90
34873;DHT22;21084;51.098;14.506;2023-02-16T02:31:15;-0.80;99.90
34873;DHT22;21084;51.098;14.506;2023-02-16T02:33:48;-0.60;99.90
34873;DHT22;21084;51.098;14.506;2023-02-16T02:36:21;-0.40;99.90
34873;DHT22;21084;51.098;14.506;2023-02-16T02:38:54;-0.20;99.90
34873;DHT22;21084;51.098;14.506;2023-02-16T02:41:26;-0.10;99.90
34873;DHT22;21084;51.098;14.506;2023-02-16T02:44:19;-0.20;99.90
34873;DHT22;21084;51.098;14.506;2023-02-16T02:46:48;0.00;99.90
34873;DHT22;21084;51.098;14.506;2023-02-16T02:49:17;0.00;99.90
34873;DHT22;21084;51.098;14.506;2023-02-16T02:51:45;0.10;99.90
34873;DHT22;21084;51.098;14.506;2023-02-16T02:54:14;0.00;99.90
34873;DHT22;21084;51.098;14.506;2023-02-16T02:57:03;-0.10;99.90
34873;DHT22;21084;51.098;14.506;2023-02-16T02:59:53;-0.20;99.90
34873;DHT22;21084;51.098;14.506;2023-02-16T03:02:42;-0.20;99.90
34873;DHT22;21084;51.098;14.506;2023-02-16T03:05:12;-0.20;99.90
34873;DHT22;21084;51.098;14.506;2023-02-16T03:07:42;-0.40;99.90
34873;DHT22;21084;51.098;14.506;2023-02-16T03:10:14;-0.40;99.90
34873;DHT22;21084;51.098;14.506;2023-02-16T03:13:01;-0.50;99.90
34873;DHT22;21084;51.098;14.506;2023-02-16T03:15:32;-0.70;99.90
34873;DHT22;21084;51.098;14.506;2023-02-16T03:18:01;-0.90;99.90
34873;DHT22;21084;51.098;14.506;2023-02-16T03:20:47;-0.90;99.90
34873;DHT22;21084;51.098;14.506;2023-02-16T03:23:33;-1.00;99.90
34873;DHT22;21084;51.098;14.506;2023-02-16T03:26:20;-1.00;99.90
34873;DHT22;21084;51.098;14.506;2023-02-16T03:29:07;-1.00;99.90
34873;DHT22;21084;51.098;14.506;2023-02-16T03:31:49;-1.10;99.90
34873;DHT22;21084;51.098;14.506;2023-02-16T03:34:18;-1.00;99.90
34873;DHT22;21084;51.098;14.506;2023-02-16T03:36:48;-1.00;99.90
34873;DHT22;21084;51.098;14.506;2023-02-16T03:39:17;-1.10;99.90
34873;DHT22;21084;51.098;14.506;2023-02-16T03:41:47;-1.00;99.90
34873;DHT22;21084;51.098;14.506;2023-02-16T03:44:16;-1.10;99.90
34873;DHT22;21084;51.098;14.506;2023-02-16T03:46:44;-1.20;99.90
34873;DHT22;21084;51.098;14.506;2023-02-16T03:49:17;-1.20;99.90
34873;DHT22;21084;51.098;14.506;2023-02-16T03:51:45;-1.10;99.90
34873;DHT22;21084;51.098;14.506;2023-02-16T03:54:13;-1.00;99.90
34873;DHT22;21084;51.098;14.506;2023-02-16T03:56:41;-1.00;99.90
34873;DHT22;21084;51.098;14.506;2023-02-16T03:59:09;-1.00;99.90
34873;DHT22;21084;51.098;14.506;2023-02-16T04:01:38;-0.90;99.90
34873;DHT22;21084;51.098;14.506;2023-02-16T04:04:06;-0.90;99.90
34873;DHT22;21084;51.098;14.506;2023-02-16T04:06:35;-0.90;99.90
34873;DHT22;21084;51.098;14.506;2023-02-16T04:09:04;-0.90;99.90
34873;DHT22;21084;51.098;14.506;2023-02-16T04:11:32;-1.00;99.90
34873;DHT22;21084;51.098;14.506;2023-02-16T04:14:17;-1.00;99.90
34873;DHT22;21084;51.098;14.506;2023-02-16T04:16:45;-1.00;99.90
34873;DHT22;21084;51.098;14.506;2023-02-16T04:19:14;-0.80;99.90
34873;DHT22;21084;51.098;14.506;2023-02-16T04:21:43;-0.70;99.90
34873;DHT22;21084;51.098;14.506;2023-02-16T04:24:11;-0.70;99.90
34873;DHT22;21084;51.098;14.506;2023-02-16T04:26:39;-0.40;99.90
34873;DHT22;21084;51.098;14.506;2023-02-16T04:29:07;-0.30;99.90
34873;DHT22;21084;51.098;14.506;2023-02-16T04:31:36;-0.20;99.90
34873;DHT22;21084;51.098;14.506;2023-02-16T04:34:04;-0.40;99.90
34873;DHT22;21084;51.098;14.506;2023-02-16T04:36:33;-0.50;99.90
34873;DHT22;21084;51.098;14.506;2023-02-16T04:39:02;-0.50;99.90
34873;DHT22;21084;51.098;14.506;2023-02-16T04:41:30;-0.60;99.90
34873;DHT22;21084;51.098;14.506;2023-02-16T04:43:59;-0.40;99.90
34873;DHT22;21084;51.098;14.506;2023-02-16T04:46:27;-0.50;99.90
34873;DHT22;21084;51.098;14.506;2023-02-16T04:48:56;-0.80;99.90
34873;DHT22;21084;51.098;14.506;2023-02-16T04:51:24;-0.90;99.90
34873;DHT22;21084;51.098;14.506;2023-02-16T04:53:52;-1.00;99.90
34873;DHT22;21084;51.098;14.506;2023-02-16T04:56:22;-1.00;99.90
34873;DHT22;21084;51.098;14.506;2023-02-16T04:58:50;-1.10;99.90
34873;DHT22;21084;51.098;14.506;2023-02-16T05:01:18;-1.10;99.90
34873;DHT22;21084;51.098;14.506;2023-02-16T05:03:47;-1.10;99.90
34873;DHT22;21084;51.098;14.506;2023-02-16T05:06:15;-1.00;99.90
34873;DHT22;21084;51.098;14.506;2023-02-16T05:08:44;-0.90;99.90
34873;DHT22;21084;51.098;14.506;2023-02-16T05:11:12;-0.90;99.90
34873;DHT22;21084;51.098;14.506;2023-02-16T05:13:59;-0.90;99.90
34873;DHT22;21084;51.098;14.506;2023-02-16T05:16:45;-1.00;99.90
34873;DHT22;21084;51.098;14.506;2023-02-16T05:19:13;-1.10;99.90
34873;DHT22;21084;51.098;14.506;2023-02-16T05:21:41;-1.10;99.90
34873;DHT22;21084;51.098;14.506;2023-02-16T05:24:10;-1.10;99.90
34873;DHT22;21084;51.098;14.506;2023-02-16T05:26:38;-1.10;99.90
34873;DHT22;21084;51.098;14.506;2023-02-16T05:29:08;-1.00;99.90
34873;DHT22;21084;51.098;14.506;2023-02-16T05:31:36;-1.00;99.90
34873;DHT22;21084;51.098;14.506;2023-02-16T05:34:04;-0.90;99.90
34873;DHT22;21084;51.098;14.506;2023-02-16T05:36:33;-0.80;99.90
34873;DHT22;21084;51.098;14.506;2023-02-16T05:39:01;-0.80;99.90
34873;DHT22;21084;51.098;14.506;2023-02-16T05:41:29;-0.70;99.90
34873;DHT22;21084;51.098;14.506;2023-02-16T05:43:58;-0.60;99.90
34873;DHT22;21084;51.098;14.506;2023-02-16T05:46:28;-0.70;99.90
34873;DHT22;21084;51.098;14.506;2023-02-16T05:48:58;-0.90;99.90
34873;DHT22;21084;51.098;14.506;2023-02-16T05:51:26;-1.10;99.90
34873;DHT22;21084;51.098;14.506;2023-02-16T05:53:54;-1.10;99.90
34873;DHT22;21084;51.098;14.506;2023-02-16T05:56:23;-1.10;99.90
34873;DHT22;21084;51.098;14.506;2023-02-16T05:58:51;-1.10;99.90
34873;DHT22;21084;51.098;14.506;2023-02-16T06:01:20;-1.20;99.90
34873;DHT22;21084;51.098;14.506;2023-02-16T06:03:49;-1.20;99.90
34873;DHT22;21084;51.098;14.506;2023-02-16T06:06:17;-1.20;99.90
34873;DHT22;21084;51.098;14.506;2023-02-16T06:08:46;-1.30;99.90
34873;DHT22;21084;51.098;14.506;2023-02-16T06:11:14;-1.30;99.90
34873;DHT22;21084;51.098;14.506;2023-02-16T06:14:00;-1.40;99.90
34873;DHT22;21084;51.098;14.506;2023-02-16T06:16:29;-1.40;99.90
34873;DHT22;21084;51.098;14.506;2023-02-16T06:18:59;-1.00;99.90
34873;DHT22;21084;51.098;14.506;2023-02-16T06:21:27;-0.80;99.90
34873;DHT22;21084;51.098;14.506;2023-02-16T06:23:55;-0.60;99.90
34873;DHT22;21084;51.098;14.506;2023-02-16T06:26:24;-0.50;99.90
34873;DHT22;21084;51.098;14.506;2023-02-16T06:28:53;-0.30;99.90
34873;DHT22;21084;51.098;14.506;2023-02-16T06:31:21;-0.20;99.90
34873;DHT22;21084;51.098;14.506;2023-02-16T06:33:51;-0.10;99.90
34873;DHT22;21084;51.098;14.506;2023-02-16T06:36:21;0.10;99.90
34873;DHT22;21084;51.098;14.506;2023-02-16T06:38:50;0.10;99.90
34873;DHT22;21084;51.098;14.506;2023-02-16T06:41:18;0.10;99.90
34873;DHT22;21084;51.098;14.506;2023-02-16T06:43:58;0.10;99.90
34873;DHT22;21084;51.098;14.506;2023-02-16T06:46:26;0.10;99.90
34873;DHT22;21084;51.098;14.506;2023-02-16T06:48:55;0.10;99.90
34873;DHT22;21084;51.098;14.506;2023-02-16T06:51:24;0.10;99.90
34873;DHT22;21084;51.098;14.506;2023-02-16T06:53:53;0.10;99.90
34873;DHT22;21084;51.098;14.506;2023-02-16T06:56:21;0.10;99.90
34873;DHT22;21084;51.098;14.506;2023-02-16T06:58:49;0.10;99.90
34873;DHT22;21084;51.098;14.506;2023-02-16T07:01:18;0.20;99.90
34873;DHT22;21084;51.098;14.506;2023-02-16T07:03:49;0.20;99.90
34873;DHT22;21084;51.098;14.506;2023-02-16T07:06:17;0.30;99.90
34873;DHT22;21084;51.098;14.506;2023-02-16T07:08:47;0.30;99.90
34873;DHT22;21084;51.098;14.506;2023-02-16T07:11:15;0.30;99.90
34873;DHT22;21084;51.098;14.506;2023-02-16T07:13:44;0.40;99.90
34873;DHT22;21084;51.098;14.506;2023-02-16T07:16:12;0.40;99.90
34873;DHT22;21084;51.098;14.506;2023-02-16T07:18:41;0.50;99.90
34873;DHT22;21084;51.098;14.506;2023-02-16T07:21:09;0.60;99.90
34873;DHT22;21084;51.098;14.506;2023-02-16T07:23:37;0.70;99.90
34873;DHT22;21084;51.098;14.506;2023-02-16T07:26:07;0.70;99.90
34873;DHT22;21084;51.098;14.506;2023-02-16T07:28:35;0.90;99.90
34873;DHT22;21084;51.098;14.506;2023-02-16T07:31:04;1.00;99.90
34873;DHT22;21084;51.098;14.506;2023-02-16T07:33:33;1.00;99.90
34873;DHT22;21084;51.098;14.506;2023-02-16T07:36:01;1.10;99.90
34873;DHT22;21084;51.098;14.506;2023-02-16T07:38:30;1.20;99.90
34873;DHT22;21084;51.098;14.506;2023-02-16T07:40:58;1.20;99.90
34873;DHT22;21084;51.098;14.506;2023-02-16T07:43:28;1.30;99.90
34873;DHT22;21084;51.098;14.506;2023-02-16T07:45:56;1.40;99.90
34873;DHT22;21084;51.098;14.506;2023-02-16T07:48:24;1.40;99.90
34873;DHT22;21084;51.098;14.506;2023-02-16T07:50:52;1.50;99.90
34873;DHT22;21084;51.098;14.506;2023-02-16T07:53:20;1.50;99.90
34873;DHT22;21084;51.098;14.506;2023-02-16T07:55:48;1.60;99.90
34873;DHT22;21084;51.098;14.506;2023-02-16T07:58:17;1.70;99.90
34873;DHT22;21084;51.098;14.506;2023-02-16T08:00:55;1.70;99.90
34873;DHT22;21084;51.098;14.506;2023-02-16T08:03:24;1.70;99.90
34873;DHT22;21084;51.098;14.506;2023-02-16T08:05:52;1.80;99.90
34873;DHT22;21084;51.098;14.506;2023-02-16T08:08:20;1.90;99.90
34873;DHT22;21084;51.098;14.506;2023-02-16T08:10:49;1.80;99.90
34873;DHT22;21084;51.098;14.506;2023-02-16T08:13:17;1.90;99.90
34873;DHT22;21084;51.098;14.506;2023-02-16T08:15:45;1.70;99.90
34873;DHT22;21084;51.098;14.506;2023-02-16T08:18:14;1.60;99.90
34873;DHT22;21084;51.098;14.506;2023-02-16T08:20:42;1.60;99.90
34873;DHT22;21084;51.098;14.506;2023-02-16T08:23:29;1.70;99.90
34873;DHT22;21084;51.098;14.506;2023-02-16T08:25:58;1.80;99.90
34873;DHT22;21084;51.098;14.506;2023-02-16T08:28:26;2.00;99.90
34873;DHT22;21084;51.098;14.506;2023-02-16T08:30:55;2.20;99.90
34873;DHT22;21084;51.098;14.506;2023-02-16T08:33:25;2.40;99.90
34873;DHT22;21084;51.098;14.506;2023-02-16T08:35:53;2.50;99.90
34873;DHT22;21084;51.098;14.506;2023-02-16T08:38:21;2.60;99.90
34873;DHT22;21084;51.098;14.506;2023-02-16T08:40:50;2.60;99.90
34873;DHT22;21084;51.098;14.506;2023-02-16T08:43:18;2.30;99.90
34873;DHT22;21084;51.098;14.506;2023-02-16T08:45:46;2.20;99.90
34873;DHT22;21084;51.098;14.506;2023-02-16T08:48:15;1.90;99.90
34873;DHT22;21084;51.098;14.506;2023-02-16T08:50:45;1.80;99.90
34873;DHT22;21084;51.098;14.506;2023-02-16T08:53:19;1.80;99.90
34873;DHT22;21084;51.098;14.506;2023-02-16T08:55:52;1.80;99.90
34873;DHT22;21084;51.098;14.506;2023-02-16T08:58:21;1.90;99.90
34873;DHT22;21084;51.098;14.506;2023-02-16T09:00:50;1.90;99.90
34873;DHT22;21084;51.098;14.506;2023-02-16T09:03:18;1.90;99.90
34873;DHT22;21084;51.098;14.506;2023-02-16T09:05:48;1.90;99.90
34873;DHT22;21084;51.098;14.506;2023-02-16T09:08:18;2.00;99.90
34873;DHT22;21084;51.098;14.506;2023-02-16T09:10:47;2.20;99.90
34873;DHT22;21084;51.098;14.506;2023-02-16T09:13:15;2.30;99.90
34873;DHT22;21084;51.098;14.506;2023-02-16T09:15:43;2.20;99.90
34873;DHT22;21084;51.098;14.506;2023-02-16T09:18:13;2.10;99.90
34873;DHT22;21084;51.098;14.506;2023-02-16T09:20:42;2.10;99.90
34873;DHT22;21084;51.098;14.506;2023-02-16T09:23:14;2.30;99.90
34873;DHT22;21084;51.098;14.506;2023-02-16T09:25:42;2.50;99.90
34873;DHT22;21084;51.098;14.506;2023-02-16T09:28:10;2.40;99.90
34873;DHT22;21084;51.098;14.506;2023-02-16T09:30:39;2.40;99.90
34873;DHT22;21084;51.098;14.506;2023-02-16T09:33:07;2.30;99.90
34873;DHT22;21084;51.098;14.506;2023-02-16T09:35:36;2.30;99.90
34873;DHT22;21084;51.098;14.506;2023-02-16T09:38:05;2.30;99.90
34873;DHT22;21084;51.098;14.506;2023-02-16T09:40:36;2.40;99.90
34873;DHT22;21084;51.098;14.506;2023-02-16T09:43:05;2.50;99.90
34873;DHT22;21084;51.098;14.506;2023-02-16T09:45:38;2.60;99.90
34873;DHT22;21084;51.098;14.506;2023-02-16T09:48:09;2.80;99.90
34873;DHT22;21084;51.098;14.506;2023-02-16T09:50:44;3.00;99.90
34873;DHT22;21084;51.098;14.506;2023-02-16T09:53:20;3.20;99.90
34873;DHT22;21084;51.098;14.506;2023-02-16T09:55:51;3.20;99.90
34873;DHT22;21084;51.098;14.506;2023-02-16T09:58:25;3.40;99.90
34873;DHT22;21084;51.098;14.506;2023-02-16T10:00:56;3.40;99.90
34873;DHT22;21084;51.098;14.506;2023-02-16T10:03:32;3.50;99.90
34873;DHT22;21084;51.098;14.506;2023-02-16T10:06:07;3.60;99.90
34873;DHT22;21084;51.098;14.506;2023-02-16T10:08:42;3.70;99.90
34873;DHT22;21084;51.098;14.506;2023-02-16T10:11:13;3.70;99.90
34873;DHT22;21084;51.098;14.506;2023-02-16T10:13:58;4.00;99.90
34873;DHT22;21084;51.098;14.506;2023-02-16T10:16:29;4.10;99.90
34873;DHT22;21084;51.098;14.506;2023-02-16T10:18:59;4.40;99.90
34873;DHT22;21084;51.098;14.506;2023-02-16T10:21:28;4.70;99.90
34873;DHT22;21084;51.098;14.506;2023-02-16T10:23:58;5.00;99.90
34873;DHT22;21084;51.098;14.506;2023-02-16T10:26:29;5.20;99.90
34873;DHT22;21084;51.098;14.506;2023-02-16T10:29:00;5.50;99.90
34873;DHT22;21084;51.098;14.506;2023-02-16T10:31:33;5.70;99.90
34873;DHT22;21084;51.098;14.506;2023-02-16T10:34:07;5.90;99.90
34873;DHT22;21084;51.098;14.506;2023-02-16T10:36:41;6.00;99.90
34873;DHT22;21084;51.098;14.506;2023-02-16T10:39:15;6.40;99.90
34873;DHT22;21084;51.098;14.506;2023-02-16T10:41:48;6.10;99.90
34873;DHT22;21084;51.098;14.506;2023-02-16T10:44:22;5.80;99.90
34873;DHT22;21084;51.098;14.506;2023-02-16T10:46:53;5.70;99.90
34873;DHT22;21084;51.098;14.506;2023-02-16T10:49:22;5.50;99.90
34873;DHT22;21084;51.098;14.506;2023-02-16T10:51:51;5.30;99.90
34873;DHT22;21084;51.098;14.506;2023-02-16T10:54:21;5.30;99.90
34873;DHT22;21084;51.098;14.506;2023-02-16T10:56:53;5.50;99.90
34873;DHT22;21084;51.098;14.506;2023-02-16T10:59:24;5.70;99.90
34873;DHT22;21084;51.098;14.506;2023-02-16T11:01:53;6.00;99.90
34873;DHT22;21084;51.098;14.506;2023-02-16T11:04:30;6.20;99.90
34873;DHT22;21084;51.098;14.506;2023-02-16T11:07:02;6.20;99.90
34873;DHT22;21084;51.098;14.506;2023-02-16T11:09:31;6.30;99.90
34873;DHT22;21084;51.098;14.506;2023-02-16T11:12:01;6.60;99.90
34873;DHT22;21084;51.098;14.506;2023-02-16T11:14:29;6.80;99.90
34873;DHT22;21084;51.098;14.506;2023-02-16T11:17:02;6.70;99.90
34873;DHT22;21084;51.098;14.506;2023-02-16T11:19:30;6.50;99.90
34873;DHT22;21084;51.098;14.506;2023-02-16T11:21:59;6.40;99.90
34873;DHT22;21084;51.098;14.506;2023-02-16T11:24:29;6.70;99.90
34873;DHT22;21084;51.098;14.506;2023-02-16T11:26:58;7.00;99.90
34873;DHT22;21084;51.098;14.506;2023-02-16T11:29:29;7.30;99.90
34873;DHT22;21084;51.098;14.506;2023-02-16T11:31:57;7.40;99.90
34873;DHT22;21084;51.098;14.506;2023-02-16T11:34:28;7.30;99.90
34873;DHT22;21084;51.098;14.506;2023-02-16T11:37:01;7.00;99.90
34873;DHT22;21084;51.098;14.506;2023-02-16T11:39:31;6.50;99.90
34873;DHT22;21084;51.098;14.506;2023-02-16T11:42:00;6.50;99.90
34873;DHT22;21084;51.098;14.506;2023-02-16T11:44:32;7.00;99.90
34873;DHT22;21084;51.098;14.506;2023-02-16T11:47:02;7.00;99.90
34873;DHT22;21084;51.098;14.506;2023-02-16T11:49:31;7.00;99.90
34873;DHT22;21084;51.098;14.506;2023-02-16T11:51:59;7.30;99.90
34873;DHT22;21084;51.098;14.506;2023-02-16T11:54:28;7.40;99.90
34873;DHT22;21084;51.098;14.506;2023-02-16T11:56:59;7.30;99.90
34873;DHT22;21084;51.098;14.506;2023-02-16T11:59:28;7.40;99.90
34873;DHT22;21084;51.098;14.506;2023-02-16T12:02:10;7.60;99.90
34873;DHT22;21084;51.098;14.506;2023-02-16T12:04:46;7.80;99.90
34873;DHT22;21084;51.098;14.506;2023-02-16T12:07:20;8.10;99.90
34873;DHT22;21084;51.098;14.506;2023-02-16T12:09:52;8.50;99.90
34873;DHT22;21084;51.098;14.506;2023-02-16T12:12:25;8.90;99.90
34873;DHT22;21084;51.098;14.506;2023-02-16T12:15:00;8.90;99.90
34873;DHT22;21084;51.098;14.506;2023-02-16T12:17:35;8.50;99.90
34873;DHT22;21084;51.098;14.506;2023-02-16T12:20:12;8.40;99.90
34873;DHT22;21084;51.098;14.506;2023-02-16T12:22:45;8.80;99.90
34873;DHT22;21084;51.098;14.506;2023-02-16T12:25:22;8.30;99.90
34873;DHT22;21084;51.098;14.506;2023-02-16T12:27:54;7.90;99.90
34873;DHT22;21084;51.098;14.506;2023-02-16T12:30:31;9.10;99.90
34873;DHT22;21084;51.098;14.506;2023-02-16T12:33:07;9.50;99.90
34873;DHT22;21084;51.098;14.506;2023-02-16T12:38:25;10.10;99.90
34873;DHT22;21084;51.098;14.506;2023-02-16T12:40:59;10.10;99.90
34873;DHT22;21084;51.098;14.506;2023-02-16T12:43:33;10.00;99.90
34873;DHT22;21084;51.098;14.506;2023-02-16T12:46:03;9.40;99.90
34873;DHT22;21084;51.098;14.506;2023-02-16T12:48:36;9.10;99.90
34873;DHT22;21084;51.098;14.506;2023-02-16T12:51:08;8.90;99.90
34873;DHT22;21084;51.098;14.506;2023-02-16T12:53:40;8.70;99.90
34873;DHT22;21084;51.098;14.506;2023-02-16T12:56:10;9.70;99.90
34873;DHT22;21084;51.098;14.506;2023-02-16T12:58:44;10.10;99.90
34873;DHT22;21084;51.098;14.506;2023-02-16T13:01:16;10.50;99.90
34873;DHT22;21084;51.098;14.506;2023-02-16T13:03:50;10.50;99.90
34873;DHT22;21084;51.098;14.506;2023-02-16T13:06:21;11.30;99.90
34873;DHT22;21084;51.098;14.506;2023-02-16T13:08:52;11.50;99.90
34873;DHT22;21084;51.098;14.506;2023-02-16T13:11:25;11.30;99.90
34873;DHT22;21084;51.098;14.506;2023-02-16T13:13:55;10.40;99.90
34873;DHT22;21084;51.098;14.506;2023-02-16T13:16:38;11.70;99.90
34873;DHT22;21084;51.098;14.506;2023-02-16T13:19:11;11.80;99.90
34873;DHT22;21084;51.098;14.506;2023-02-16T13:21:47;11.30;99.90
34873;DHT22;21084;51.098;14.506;2023-02-16T13:24:22;11.70;99.90
34873;DHT22;21084;51.098;14.506;2023-02-16T13:26:55;12.20;99.90
34873;DHT22;21084;51.098;14.506;2023-02-16T13:32:18;12.30;99.90
34873;DHT22;21084;51.098;14.506;2023-02-16T13:34:55;11.80;99.90
34873;DHT22;21084;51.098;14.506;2023-02-16T13:37:30;12.20;99.90
34873;DHT22;21084;51.098;14.506;2023-02-16T13:40:10;12.00;99.90
34873;DHT22;21084;51.098;14.506;2023-02-16T13:42:50;12.30;99.90
34873;DHT22;21084;51.098;14.506;2023-02-16T13:45:21;12.00;99.90
34873;DHT22;21084;51.098;14.506;2023-02-16T13:47:51;12.50;99.90
34873;DHT22;21084;51.098;14.506;2023-02-16T13:50:25;12.20;99.90
34873;DHT22;21084;51.098;14.506;2023-02-16T13:52:55;12.10;99.90
34873;DHT22;21084;51.098;14.506;2023-02-16T13:55:25;13.00;99.90
34873;DHT22;21084;51.098;14.506;2023-02-16T13:57:59;12.80;99.90
34873;DHT22;21084;51.098;14.506;2023-02-16T14:00:29;13.30;99.90
34873;DHT22;21084;51.098;14.506;2023-02-16T14:02:59;13.40;99.90
34873;DHT22;21084;51.098;14.506;2023-02-16T14:05:33;12.90;99.90
34873;DHT22;21084;51.098;14.506;2023-02-16T14:08:12;14.10;99.90
34873;DHT22;21084;51.098;14.506;2023-02-16T14:10:55;15.50;99.90
34873;DHT22;21084;51.098;14.506;2023-02-16T14:13:26;15.60;99.90
34873;DHT22;21084;51.098;14.506;2023-02-16T14:15:55;16.70;99.90
34873;DHT22;21084;51.098;14.506;2023-02-16T14:18:26;17.30;98.20
34873;DHT22;21084;51.098;14.506;2023-02-16T14:21:00;16.80;94.90
34873;DHT22;21084;51.098;14.506;2023-02-16T14:23:29;16.50;94.00
34873;DHT22;21084;51.098;14.506;2023-02-16T14:26:00;16.00;95.20
34873;DHT22;21084;51.098;14.506;2023-02-16T14:31:17;13.80;97.90
34873;DHT22;21084;51.098;14.506;2023-02-16T14:33:51;13.30;99.70
34873;DHT22;21084;51.098;14.506;2023-02-16T14:36:23;13.30;99.60
34873;DHT22;21084;51.098;14.506;2023-02-16T14:38:53;14.00;99.90
34873;DHT22;21084;51.098;14.506;2023-02-16T14:41:28;16.20;99.10
34873;DHT22;21084;51.098;14.506;2023-02-16T14:44:08;15.70;95.20
34873;DHT22;21084;51.098;14.506;2023-02-16T14:46:41;14.90;96.00
34873;DHT22;21084;51.098;14.506;2023-02-16T14:49:21;14.50;97.50
34873;DHT22;21084;51.098;14.506;2023-02-16T14:52:12;15.20;95.20
34873;DHT22;21084;51.098;14.506;2023-02-16T14:57:39;16.50;93.50
34873;DHT22;21084;51.098;14.506;2023-02-16T15:00:10;15.40;94.40
34873;DHT22;21084;51.098;14.506;2023-02-16T15:02:40;14.90;94.30
34873;DHT22;21084;51.098;14.506;2023-02-16T15:05:13;14.40;94.90
34873;DHT22;21084;51.098;14.506;2023-02-16T15:07:44;14.00;96.20
34873;DHT22;21084;51.098;14.506;2023-02-16T15:10:13;12.60;97.60
34873;DHT22;21084;51.098;14.506;2023-02-16T15:12:42;11.80;99.80
34873;DHT22;21084;51.098;14.506;2023-02-16T15:15:12;10.80;99.90
34873;DHT22;21084;51.098;14.506;2023-02-16T15:17:44;10.20;99.90
34873;DHT22;21084;51.098;14.506;2023-02-16T15:20:17;9.60;99.90
34873;DHT22;21084;51.098;14.506;2023-02-16T15:22:49;9.10;99.90
34873;DHT22;21084;51.098;14.506;2023-02-16T15:25:22;8.50;99.90
34873;DHT22;21084;51.098;14.506;2023-02-16T15:27:52;8.20;99.90
34873;DHT22;21084;51.098;14.506;2023-02-16T15:30:21;8.10;99.90
34873;DHT22;21084;51.098;14.506;2023-02-16T15:32:51;8.40;99.90
34873;DHT22;21084;51.098;14.506;2023-02-16T15:35:24;8.20;99.90
34873;DHT22;21084;51.098;14.506;2023-02-16T15:38:04;8.40;99.90
34873;DHT22;21084;51.098;14.506;2023-02-16T15:40:33;8.30;99.90
34873;DHT22;21084;51.098;14.506;2023-02-16T15:43:05;8.50;99.90
34873;DHT22;21084;51.098;14.506;2023-02-16T15:45:36;7.90;99.90
34873;DHT22;21084;51.098;14.506;2023-02-16T15:48:14;7.30;99.90
34873;DHT22;21084;51.098;14.506;2023-02-16T15:50:42;6.90;99.90
34873;DHT22;21084;51.098;14.506;2023-02-16T15:53:13;6.70;99.90
34873;DHT22;21084;51.098;14.506;2023-02-16T15:55:43;6.50;99.90
34873;DHT22;21084;51.098;14.506;2023-02-16T15:58:12;6.20;99.90
34873;DHT22;21084;51.098;14.506;2023-02-16T16:00:42;6.00;99.90
34873;DHT22;21084;51.098;14.506;2023-02-16T16:03:12;5.80;99.90